LA HONDA (LAH)

Elevation: 425' · SAN GREGORIO CR basin · Operator: CAL FIRE

Query executed Monday at 16:12:21   clock

Provisional data, subject to change.
Select a sensor type for a plot of data.

Earlier

Date   /   Time   RAIN     TEMP     REL HUM     FUEL MS     FUEL TP     WIND SP     WIND DR     PEAK WS     PEAK WD     SOLAR R     BAT VOL    
(PST)INCHES   DEG F   %   %   DEG F   MPH   DEG   MPH   DEG   W/M^2   VOLTS  
11/23/2014 16:00 4.15 62 36 25 55 4 29 10 347 157.00 13.8
11/23/2014 17:00 4.15 56 46 26 48 1 28 9 23 36.00 13.5
11/23/2014 18:00 4.15 49 79 26 44 3 82 6 1 0.00 13.3
11/23/2014 19:00 4.15 46 89 26 42 4 73 5 81 0.00 13.2
11/23/2014 20:00 4.15 44 92 27 40 4 80 6 81 0.00 13.1
11/23/2014 21:00 4.15 44 93 27 40 4 76 6 78 0.00 13.0
11/23/2014 22:00 4.15 42 95 27 39 3 92 9 79 0.00 12.9
11/23/2014 23:00 4.15 42 93 27 38 3 86 9 80 0.00 12.8
11/24/2014 00:00 4.15 41 95 27 39 5 72 6 86 0.00 12.8
11/24/2014 01:00 4.15 41 96 27 38 5 94 7 87 0.00 12.8
11/24/2014 02:00 4.15 44 75 27 38 4 90 6 80 0.00 12.8
11/24/2014 03:00 4.15 46 70 27 37 1 10 6 51 0.00 12.8
11/24/2014 04:00 4.15 47 64 27 38 2 124 7 77 0.00 12.7
11/24/2014 05:00 4.15 48 56 27 38 2 151 6 109 0.00 12.7
11/24/2014 06:00 4.15 51 51 27 39 3 328 11 240 0.00 12.7
11/24/2014 07:00 4.15 52 48 27 40 3 355 11 229 1.00 12.7
11/24/2014 08:00 4.15 55 43 26 45 4 122 11 62 55.00 14.8
11/24/2014 09:00 4.15 58 37 25 58 4 25 13 68 218.00 14.1
11/24/2014 10:00 4.15 60 34 21 66 6 65 12 5 345.00 14.1
11/24/2014 11:00 4.15 63 32 18 66 7 49 19 47 440.00 14.1
11/24/2014 12:00 4.15 64 29 14 67 6 65 15 65 487.00 13.8
11/24/2014 13:00 4.15 65 27 11 64 9 38 21 27 481.00 13.8
11/24/2014 14:00 4.15 65 27 10 64 7 37 15 29 426.00 13.7
11/24/2014 15:00 4.15 65 26 10 66 5 45 13 47 322.00 14.0
11/24/2014 16:00 4.15 65 27 9 60 4 19 11 33 187.00 13.7

Later | Latest

Warning! This data is preliminary and subject to revision.

Show LAH Map | 24 Hours LAH Data | Plot all LAH Sensors | Daily LAH Data | LAH Info